Time;durP1;ratioP1;P1;durP2;ratioP2;P2;SDS_P1;SDS_P2;PMS_P1;PMS_P2;Temp;Humidity;BMP_temperature;BMP_pressure;BME280_temperature;BME280_humidity;BME280_pressure;Samples;Min_cycle;Max_cycle;Signal;HPM_P1;HPM_P2
2022/07/13 00:00:22;;;;;;;0.40;0.40;;;17.80;99.90;;;;;;5074849;28;20503;-84
2022/07/13 00:02:49;;;;;;;0.50;0.50;;;17.80;99.90;;;;;;5074618;28;20433;-85
2022/07/13 00:05:16;;;;;;;0.43;0.43;;;17.80;99.90;;;;;;5074708;28;20488;-85
2022/07/13 00:07:43;;;;;;;0.50;0.40;;;17.70;99.90;;;;;;5074357;28;20469;-84
2022/07/13 00:10:11;;;;;;;0.37;0.30;;;17.70;99.90;;;;;;5074364;28;20959;-84
2022/07/13 00:12:39;;;;;;;0.57;0.50;;;17.60;99.90;;;;;;5074531;28;20795;-84
2022/07/13 00:15:07;;;;;;;1.20;0.50;;;17.60;99.90;;;;;;5074543;28;20536;-84
2022/07/13 00:17:33;;;;;;;0.50;0.30;;;17.60;99.90;;;;;;5074446;28;20469;-84
2022/07/13 00:20:00;;;;;;;0.50;0.40;;;17.60;99.90;;;;;;5074536;28;20491;-84
2022/07/13 00:22:27;;;;;;;0.73;0.40;;;17.50;99.90;;;;;;5074481;28;20449;-84
2022/07/13 00:24:54;;;;;;;0.40;0.40;;;17.50;99.90;;;;;;5074407;28;20810;-84
2022/07/13 00:27:22;;;;;;;0.30;0.30;;;17.50;99.90;;;;;;5074037;28;20974;-84
2022/07/13 00:29:48;;;;;;;1.50;0.40;;;17.50;99.90;;;;;;5074334;28;20451;-84
2022/07/13 00:32:15;;;;;;;0.40;0.40;;;17.40;99.90;;;;;;5074209;28;20447;-84
2022/07/13 00:34:42;;;;;;;0.40;0.30;;;17.40;99.90;;;;;;5074203;28;20445;-84
2022/07/13 00:37:08;;;;;;;0.60;0.40;;;17.40;99.90;;;;;;5073612;28;20473;-84
2022/07/13 00:39:35;;;;;;;0.40;0.40;;;17.30;99.90;;;;;;5073808;28;20456;-84
2022/07/13 00:42:02;;;;;;;0.50;0.40;;;17.30;99.90;;;;;;5074041;28;20457;-84
2022/07/13 00:44:30;;;;;;;0.40;0.40;;;17.30;99.90;;;;;;5074030;28;20421;-84
2022/07/13 00:46:57;;;;;;;0.40;0.30;;;17.30;99.90;;;;;;5073424;28;20452;-84
2022/07/13 00:49:24;;;;;;;0.40;0.37;;;17.30;99.90;;;;;;5073604;28;20947;-84
2022/07/13 00:51:51;;;;;;;1.50;0.50;;;17.20;99.90;;;;;;5073904;28;20451;-84
2022/07/13 00:54:21;;;;;;;0.80;0.40;;;17.20;99.90;;;;;;5073569;28;20963;-84
2022/07/13 00:56:49;;;;;;;0.40;0.40;;;17.20;99.90;;;;;;5073751;28;20524;-84
2022/07/13 00:59:16;;;;;;;0.67;0.67;;;17.10;99.90;;;;;;5073387;28;20999;-85
2022/07/13 01:01:44;;;;;;;0.43;0.40;;;17.10;99.90;;;;;;5073501;28;20952;-84
2022/07/13 01:04:11;;;;;;;0.43;0.43;;;17.00;99.90;;;;;;5073784;28;20444;-84
2022/07/13 01:06:38;;;;;;;0.60;0.53;;;17.00;99.90;;;;;;5073667;28;20445;-84
2022/07/13 01:09:06;;;;;;;0.60;0.40;;;17.00;99.90;;;;;;5073658;28;20455;-85
2022/07/13 01:11:34;;;;;;;0.80;0.40;;;16.90;99.90;;;;;;5073622;28;20456;-85
2022/07/13 01:14:01;;;;;;;0.83;0.50;;;16.90;99.90;;;;;;5073672;28;20456;-84
2022/07/13 01:16:29;;;;;;;0.40;0.40;;;16.90;99.90;;;;;;5073610;28;20828;-84
2022/07/13 01:18:58;;;;;;;0.40;0.40;;;16.90;99.90;;;;;;5073426;28;20464;-84
2022/07/13 01:21:25;;;;;;;0.40;0.30;;;16.80;99.90;;;;;;5073523;28;20445;-84
2022/07/13 01:23:53;;;;;;;0.40;0.40;;;16.80;99.90;;;;;;5073459;28;20449;-84
2022/07/13 01:26:20;;;;;;;0.40;0.40;;;16.70;99.90;;;;;;5073497;28;20452;-84
2022/07/13 01:28:47;;;;;;;0.63;0.40;;;16.70;99.90;;;;;;5073393;28;20469;-84
2022/07/13 01:31:26;;;;;;;0.50;0.47;;;16.80;99.90;;;;;;5073407;28;20442;-84
2022/07/13 01:33:53;;;;;;;1.77;0.40;;;16.70;99.90;;;;;;5073168;28;20911;-84
2022/07/13 01:36:19;;;;;;;0.40;0.40;;;16.70;99.90;;;;;;5073047;28;20948;-84
2022/07/13 01:38:46;;;;;;;0.57;0.57;;;16.70;99.90;;;;;;5072862;28;21014;-84
2022/07/13 01:41:15;;;;;;;0.70;0.37;;;16.70;99.90;;;;;;5073014;28;20472;-84
2022/07/13 01:43:44;;;;;;;0.30;0.30;;;16.70;99.90;;;;;;5072975;28;20452;-83
2022/07/13 01:46:11;;;;;;;0.40;0.40;;;16.60;99.90;;;;;;5073294;28;20449;-84
2022/07/13 01:48:38;;;;;;;0.30;0.30;;;16.60;99.90;;;;;;5073206;28;20496;-84
2022/07/13 01:51:05;;;;;;;0.43;0.30;;;16.60;99.90;;;;;;5073077;28;20821;-84
2022/07/13 01:53:31;;;;;;;0.40;0.40;;;16.60;99.90;;;;;;5073071;28;20456;-84
2022/07/13 01:55:58;;;;;;;0.30;0.30;;;16.60;99.90;;;;;;5073173;28;20448;-84
2022/07/13 01:58:27;;;;;;;0.37;0.30;;;16.60;99.90;;;;;;5073113;28;20647;-84
2022/07/13 02:00:54;;;;;;;1.17;0.40;;;16.60;99.90;;;;;;5077180;28;20515;-84
2022/07/13 02:03:21;;;;;;;0.60;0.40;;;16.60;99.90;;;;;;5076936;28;20443;-84
2022/07/13 02:05:48;;;;;;;0.60;0.30;;;16.60;99.90;;;;;;5077069;28;20457;-84
2022/07/13 02:08:15;;;;;;;0.77;0.40;;;16.60;99.90;;;;;;5076681;28;20834;-84
2022/07/13 02:10:42;;;;;;;0.40;0.40;;;16.60;99.90;;;;;;5076694;28;20445;-84
2022/07/13 02:13:11;;;;;;;0.40;0.30;;;16.60;99.90;;;;;;5076958;28;20448;-84
2022/07/13 02:15:39;;;;;;;0.40;0.30;;;16.70;99.90;;;;;;5076924;28;20449;-84
2022/07/13 02:18:07;;;;;;;0.30;0.30;;;16.70;99.90;;;;;;5076438;28;21021;-84
2022/07/13 02:20:34;;;;;;;0.40;0.30;;;16.60;99.90;;;;;;5076480;28;20468;-84
2022/07/13 02:23:01;;;;;;;0.93;0.37;;;16.60;99.90;;;;;;5076737;28;20471;-84
2022/07/13 02:25:28;;;;;;;0.60;0.50;;;16.60;99.90;;;;;;5076684;28;20449;-84
2022/07/13 02:27:55;;;;;;;0.40;0.40;;;16.60;99.90;;;;;;5076562;28;20839;-84
2022/07/13 02:30:22;;;;;;;0.40;0.30;;;16.60;99.90;;;;;;5076353;28;20441;-84
2022/07/13 02:32:50;;;;;;;0.43;0.43;;;16.50;99.90;;;;;;5076601;28;20449;-84
2022/07/13 02:35:16;;;;;;;1.73;0.47;;;16.50;99.90;;;;;;5076486;28;20468;-84
2022/07/13 02:37:43;;;;;;;0.40;0.40;;;16.50;99.90;;;;;;5075927;28;20491;-85
2022/07/13 02:40:12;;;;;;;0.67;0.40;;;16.40;99.90;;;;;;5076365;28;20495;-84
2022/07/13 02:42:38;;;;;;;0.40;0.40;;;16.40;99.90;;;;;;5076369;28;20506;-84
2022/07/13 02:45:07;;;;;;;0.40;0.40;;;16.40;99.90;;;;;;5076370;28;20449;-84
2022/07/13 02:47:33;;;;;;;0.40;0.30;;;16.40;99.90;;;;;;5076211;28;20465;-84
2022/07/13 02:50:01;;;;;;;0.50;0.40;;;16.40;99.90;;;;;;5076240;28;20447;-83
2022/07/13 02:52:28;;;;;;;0.50;0.50;;;16.40;99.90;;;;;;5076238;28;20449;-84
2022/07/13 02:54:55;;;;;;;0.53;0.33;;;16.40;99.90;;;;;;5076094;28;20460;-84
2022/07/13 02:57:22;;;;;;;0.40;0.30;;;16.40;99.90;;;;;;5075813;28;20448;-84
2022/07/13 02:59:48;;;;;;;0.63;0.43;;;16.40;99.90;;;;;;5076035;28;20484;-84
2022/07/13 03:02:16;;;;;;;0.40;0.30;;;16.50;99.90;;;;;;5076101;28;20448;-84
2022/07/13 03:04:43;;;;;;;0.40;0.40;;;16.50;99.90;;;;;;5076008;28;20452;-84
2022/07/13 03:07:11;;;;;;;0.40;0.30;;;16.60;99.90;;;;;;5075889;28;20465;-84
2022/07/13 03:09:38;;;;;;;0.40;0.30;;;16.60;99.90;;;;;;5075476;28;20449;-84
2022/07/13 03:12:05;;;;;;;0.40;0.40;;;16.60;99.90;;;;;;5075536;28;20970;-84
2022/07/13 03:14:32;;;;;;;0.50;0.40;;;16.60;99.90;;;;;;5075379;28;20464;-83
2022/07/13 03:16:59;;;;;;;0.40;0.40;;;16.60;99.90;;;;;;5075660;28;20509;-84
2022/07/13 03:19:26;;;;;;;0.40;0.40;;;16.50;99.90;;;;;;5075738;28;20459;-84
2022/07/13 03:21:52;;;;;;;0.40;0.30;;;16.50;99.90;;;;;;5075631;28;20480;-84
2022/07/13 03:24:20;;;;;;;0.40;0.40;;;16.50;99.90;;;;;;5075704;28;20444;-84
2022/07/13 03:26:47;;;;;;;0.40;0.40;;;16.50;99.90;;;;;;5075502;28;20482;-84
2022/07/13 03:29:14;;;;;;;1.37;0.40;;;16.50;99.90;;;;;;5075243;28;20445;-84
2022/07/13 03:31:41;;;;;;;0.50;0.40;;;16.40;99.90;;;;;;5075487;28;20437;-84
2022/07/13 03:34:07;;;;;;;2.20;0.50;;;16.40;99.90;;;;;;5075422;28;20452;-84
2022/07/13 03:36:34;;;;;;;0.40;0.37;;;16.40;99.90;;;;;;5075365;28;20494;-84
2022/07/13 03:39:01;;;;;;;0.43;0.33;;;16.30;99.90;;;;;;5075512;28;20461;-84
2022/07/13 03:41:29;;;;;;;0.40;0.40;;;16.30;99.90;;;;;;5074908;28;21006;-84
2022/07/13 03:43:56;;;;;;;0.50;0.47;;;16.20;99.90;;;;;;5075232;28;20455;-84
2022/07/13 03:46:23;;;;;;;0.40;0.40;;;16.20;99.90;;;;;;5075163;28;20536;-84
2022/07/13 03:48:50;;;;;;;1.50;0.50;;;16.10;99.90;;;;;;5075067;28;20586;-84
2022/07/13 03:51:16;;;;;;;0.47;0.40;;;16.10;99.90;;;;;;5074795;28;20441;-84
2022/07/13 03:53:43;;;;;;;0.60;0.40;;;16.10;99.90;;;;;;5075120;28;20449;-84
2022/07/13 03:56:10;;;;;;;0.50;0.40;;;16.10;99.90;;;;;;5074959;28;20449;-83
2022/07/13 03:58:38;;;;;;;0.50;0.50;;;16.10;99.90;;;;;;5074860;28;20472;-84
2022/07/13 04:01:06;;;;;;;2.63;0.87;;;16.10;99.90;;;;;;5074790;28;20481;-84
2022/07/13 04:03:32;;;;;;;0.40;0.40;;;16.10;99.90;;;;;;5074866;28;20449;-84
2022/07/13 04:05:59;;;;;;;0.47;0.47;;;16.10;99.90;;;;;;5074799;28;20445;-84
2022/07/13 04:08:26;;;;;;;0.40;0.40;;;16.20;99.90;;;;;;5074638;28;20839;-84
2022/07/13 04:10:53;;;;;;;0.40;0.40;;;16.20;99.90;;;;;;5074471;28;20437;-84
2022/07/13 04:13:19;;;;;;;0.40;0.30;;;16.20;99.90;;;;;;5074614;28;20459;-84
2022/07/13 04:15:47;;;;;;;0.50;0.50;;;16.20;99.90;;;;;;5074531;28;20452;-84
2022/07/13 04:18:14;;;;;;;1.00;0.40;;;16.20;99.90;;;;;;5074487;28;20476;-84
2022/07/13 04:20:41;;;;;;;0.57;0.53;;;16.30;99.90;;;;;;5074369;28;20507;-83
2022/07/13 04:23:08;;;;;;;0.80;0.40;;;16.30;99.90;;;;;;5073291;28;20444;-83
2022/07/13 04:25:34;;;;;;;0.70;0.40;;;16.30;99.90;;;;;;5074395;28;20460;-83
2022/07/13 04:28:01;;;;;;;0.40;0.40;;;16.30;99.90;;;;;;5074226;28;20465;-83
2022/07/13 04:30:28;;;;;;;0.50;0.40;;;16.40;99.90;;;;;;5074310;28;20445;-83
2022/07/13 04:32:56;;;;;;;0.50;0.50;;;16.40;99.90;;;;;;5074770;28;20445;-84
2022/07/13 04:35:23;;;;;;;0.67;0.40;;;16.40;99.90;;;;;;5074242;28;20456;-83
2022/07/13 04:37:50;;;;;;;0.70;0.40;;;16.50;99.90;;;;;;5073795;28;20534;-84
2022/07/13 04:40:16;;;;;;;0.40;0.33;;;16.50;99.90;;;;;;5074031;28;20796;-84
2022/07/13 04:42:43;;;;;;;0.63;0.63;;;16.60;99.90;;;;;;5074080;28;20449;-83
2022/07/13 04:45:11;;;;;;;0.30;0.30;;;16.60;99.90;;;;;;5074034;28;20445;-83
2022/07/13 04:47:38;;;;;;;0.50;0.50;;;16.60;99.90;;;;;;5073849;28;20488;-83
2022/07/13 04:50:07;;;;;;;0.40;0.37;;;16.60;99.90;;;;;;5073584;28;20456;-83
2022/07/13 04:52:33;;;;;;;0.40;0.30;;;16.70;99.90;;;;;;5073597;28;20947;-84
2022/07/13 04:55:01;;;;;;;0.40;0.40;;;16.70;99.90;;;;;;5073888;28;20506;-84
2022/07/13 04:57:27;;;;;;;0.50;0.50;;;16.80;99.90;;;;;;5073753;28;20476;-84
2022/07/13 04:59:54;;;;;;;12.77;0.73;;;16.80;99.90;;;;;;5073820;28;20447;-84
2022/07/13 05:02:21;;;;;;;0.70;0.40;;;16.90;99.90;;;;;;5073662;28;20481;-84
2022/07/13 05:04:48;;;;;;;0.40;0.40;;;16.90;99.90;;;;;;5073315;28;20857;-84
2022/07/13 05:07:16;;;;;;;0.47;0.40;;;16.90;99.90;;;;;;5073393;28;20453;-84
2022/07/13 05:09:45;;;;;;;0.57;0.50;;;16.90;99.90;;;;;;5073645;28;20447;-83
2022/07/13 05:12:12;;;;;;;0.73;0.50;;;17.00;99.90;;;;;;5073711;28;20479;-84
2022/07/13 05:14:38;;;;;;;0.40;0.40;;;17.10;99.90;;;;;;5073284;28;20966;-84
2022/07/13 05:17:05;;;;;;;0.60;0.50;;;17.10;99.90;;;;;;5073515;28;20472;-84
2022/07/13 05:19:33;;;;;;;0.40;0.40;;;17.10;99.90;;;;;;5073551;28;20444;-84
2022/07/13 05:22:00;;;;;;;0.40;0.40;;;17.20;99.90;;;;;;5073449;28;20575;-84
2022/07/13 05:24:28;;;;;;;0.40;0.30;;;17.20;99.90;;;;;;5073460;28;20453;-84
2022/07/13 05:26:55;;;;;;;0.40;0.40;;;17.30;99.90;;;;;;5073371;28;20806;-83
2022/07/13 05:29:21;;;;;;;0.60;0.50;;;17.30;99.90;;;;;;5073094;28;20944;-83
2022/07/13 05:31:48;;;;;;;0.50;0.47;;;17.40;99.90;;;;;;5073390;28;20770;-83
2022/07/13 05:34:15;;;;;;;0.70;0.70;;;17.50;99.90;;;;;;5072831;28;20457;-84
2022/07/13 05:36:42;;;;;;;0.50;0.50;;;17.60;99.90;;;;;;5072877;28;20449;-83
2022/07/13 05:39:09;;;;;;;0.60;0.60;;;17.70;99.90;;;;;;5073371;28;20436;-84
2022/07/13 05:41:37;;;;;;;1.23;0.70;;;17.80;99.90;;;;;;5073248;28;20476;-84
2022/07/13 05:44:05;;;;;;;0.47;0.40;;;17.90;99.90;;;;;;5073273;28;20507;-84
2022/07/13 05:46:32;;;;;;;0.40;0.30;;;18.10;99.90;;;;;;5073127;28;20834;-84
2022/07/13 05:48:59;;;;;;;0.87;0.40;;;18.30;99.90;;;;;;5073180;28;20460;-84
2022/07/13 05:51:25;;;;;;;0.43;0.43;;;18.50;99.90;;;;;;5073183;28;20441;-84
2022/07/13 05:53:52;;;;;;;0.40;0.30;;;18.70;99.90;;;;;;5072881;28;20966;-84
2022/07/13 05:56:19;;;;;;;0.50;0.40;;;18.90;99.90;;;;;;5073149;28;20444;-84
2022/07/13 05:58:47;;;;;;;0.40;0.40;;;19.10;99.90;;;;;;5073070;28;20476;-84
2022/07/13 06:01:14;;;;;;;1.80;0.87;;;19.20;99.90;;;;;;5072990;28;20476;-84
2022/07/13 06:03:40;;;;;;;0.70;0.70;;;19.30;99.90;;;;;;5073598;28;20449;-84
2022/07/13 06:06:07;;;;;;;0.43;0.43;;;19.40;99.90;;;;;;5072748;28;20959;-84
2022/07/13 06:08:34;;;;;;;0.40;0.40;;;19.40;99.90;;;;;;5072994;28;20464;-84
2022/07/13 06:11:01;;;;;;;0.40;0.40;;;19.50;99.90;;;;;;5073061;28;20433;-84
2022/07/13 06:13:27;;;;;;;0.40;0.40;;;19.50;99.90;;;;;;5072973;28;20451;-84
2022/07/13 06:15:57;;;;;;;0.60;0.60;;;19.60;99.90;;;;;;5073002;28;20459;-85
2022/07/13 06:18:23;;;;;;;0.40;0.40;;;19.80;99.90;;;;;;5072698;28;21088;-84
2022/07/13 06:20:50;;;;;;;0.40;0.40;;;20.10;99.90;;;;;;5072958;28;20462;-85
2022/07/13 06:23:18;;;;;;;0.40;0.40;;;20.40;99.90;;;;;;5072698;28;20451;-85
2022/07/13 06:25:46;;;;;;;0.50;0.40;;;20.60;99.90;;;;;;5073015;28;20459;-85
2022/07/13 06:28:14;;;;;;;0.40;0.40;;;20.80;99.90;;;;;;5073031;28;20472;-84
2022/07/13 06:30:41;;;;;;;0.40;0.40;;;21.00;99.90;;;;;;5072969;28;20480;-84
2022/07/13 06:33:10;;;;;;;0.30;0.30;;;21.20;99.90;;;;;;5072823;28;20452;-84
2022/07/13 06:35:36;;;;;;;0.30;0.30;;;21.20;99.90;;;;;;5072828;28;20455;-84
2022/07/13 06:38:03;;;;;;;0.40;0.40;;;21.20;99.90;;;;;;5072428;28;20486;-85
2022/07/13 06:40:30;;;;;;;0.40;0.40;;;21.30;99.90;;;;;;5072453;28;20955;-84
2022/07/13 06:42:57;;;;;;;0.43;0.40;;;21.30;99.90;;;;;;5072518;28;20502;-85
2022/07/13 06:45:23;;;;;;;0.40;0.40;;;21.50;99.90;;;;;;5074159;28;20443;-84
2022/07/13 06:47:51;;;;;;;0.60;0.60;;;21.60;99.90;;;;;;5076331;28;20806;-85
2022/07/13 06:50:20;;;;;;;0.70;0.50;;;21.70;99.90;;;;;;5076242;28;20218;-85
2022/07/13 06:52:47;;;;;;;0.50;0.50;;;21.80;99.90;;;;;;5076276;28;20445;-84
2022/07/13 06:55:15;;;;;;;0.40;0.40;;;21.90;99.90;;;;;;5076375;28;20455;-85
2022/07/13 06:57:42;;;;;;;0.50;0.40;;;22.10;99.90;;;;;;5076100;28;20586;-85
2022/07/13 07:00:10;;;;;;;0.40;0.40;;;22.30;99.90;;;;;;5076255;28;20205;-85
2022/07/13 07:02:37;;;;;;;0.60;0.40;;;22.40;99.90;;;;;;5076154;28;20229;-85
2022/07/13 07:05:05;;;;;;;0.40;0.40;;;22.60;99.90;;;;;;5075914;28;20206;-85
2022/07/13 07:07:33;;;;;;;0.50;0.50;;;22.70;99.90;;;;;;5075983;28;20230;-85
2022/07/13 07:09:59;;;;;;;0.50;0.50;;;22.80;99.90;;;;;;5075998;28;20201;-85
2022/07/13 07:12:26;;;;;;;0.43;0.43;;;22.90;99.90;;;;;;5075929;28;20201;-85
2022/07/13 07:14:53;;;;;;;0.40;0.40;;;23.20;99.90;;;;;;5075948;28;20209;-85
2022/07/13 07:17:20;;;;;;;0.50;0.50;;;23.40;99.90;;;;;;5075784;28;20217;-85
2022/07/13 07:19:46;;;;;;;0.60;0.50;;;23.50;99.90;;;;;;5075869;28;20236;-85
2022/07/13 07:22:14;;;;;;;0.43;0.43;;;23.70;99.90;;;;;;5075466;28;20716;-85
2022/07/13 07:24:43;;;;;;;0.40;0.40;;;23.70;99.90;;;;;;5075352;28;20207;-85
2022/07/13 07:27:10;;;;;;;0.57;0.30;;;23.80;99.90;;;;;;5075597;28;20245;-84
2022/07/13 07:29:37;;;;;;;0.50;0.50;;;23.90;99.90;;;;;;5075274;28;20688;-84
2022/07/13 07:32:05;;;;;;;0.57;0.57;;;23.90;99.90;;;;;;5075562;28;20202;-84
2022/07/13 07:34:32;;;;;;;1.27;0.50;;;24.00;99.90;;;;;;5075961;28;20205;-89
2022/07/13 07:36:59;;;;;;;0.93;0.50;;;24.10;99.90;;;;;;5075561;28;20233;-83
2022/07/13 07:39:25;;;;;;;0.57;0.57;;;24.30;99.90;;;;;;5075741;28;20193;-87
2022/07/13 07:41:54;;;;;;;0.40;0.40;;;24.50;99.90;;;;;;5075562;28;20225;-87
2022/07/13 07:44:20;;;;;;;0.50;0.38;;;24.70;99.90;;;;;;5075660;28;20206;-87
2022/07/13 07:46:48;;;;;;;0.60;0.47;;;24.80;99.90;;;;;;5075387;28;20204;-86
2022/07/13 07:49:15;;;;;;;0.40;0.40;;;24.90;99.90;;;;;;5075490;28;20198;-86
2022/07/13 07:51:42;;;;;;;0.40;0.40;;;24.90;99.90;;;;;;5075221;28;20205;-87
2022/07/13 07:54:09;;;;;;;0.63;0.63;;;25.00;99.90;;;;;;5075277;28;20205;-86
2022/07/13 07:56:35;;;;;;;0.52;0.40;;;25.10;99.90;;;;;;5075234;28;20206;-87
2022/07/13 07:59:04;;;;;;;0.40;0.40;;;25.10;99.90;;;;;;5075317;28;20222;-87
2022/07/13 08:01:30;;;;;;;0.40;0.30;;;25.20;99.90;;;;;;5074902;28;20226;-86
2022/07/13 08:03:57;;;;;;;0.60;0.60;;;25.30;99.90;;;;;;5075100;28;20247;-87
2022/07/13 08:06:24;;;;;;;0.50;0.50;;;25.50;99.80;;;;;;5075042;28;20206;-86
2022/07/13 08:08:51;;;;;;;0.40;0.40;;;25.60;99.20;;;;;;5074454;28;20240;-87
2022/07/13 08:11:18;;;;;;;0.50;0.50;;;25.60;99.50;;;;;;5074494;28;20744;-86
2022/07/13 08:13:46;;;;;;;0.40;0.40;;;25.60;97.50;;;;;;5074747;28;20209;-86
2022/07/13 08:16:15;;;;;;;0.50;0.40;;;25.60;97.10;;;;;;5074776;28;20194;-86
2022/07/13 08:18:41;;;;;;;0.68;0.40;;;25.70;97.20;;;;;;5074551;28;20226;-86
2022/07/13 08:21:08;;;;;;;0.82;0.50;;;25.70;96.10;;;;;;5074350;28;20198;-85
2022/07/13 08:23:54;;;;;;;0.50;0.50;;;25.80;95.70;;;;;;5074516;28;20226;-86
2022/07/13 08:26:22;;;;;;;0.50;0.40;;;25.80;95.00;;;;;;5074519;28;20205;-86
2022/07/13 08:28:50;;;;;;;0.40;0.40;;;25.80;94.30;;;;;;5074505;28;20593;-86
2022/07/13 08:31:20;;;;;;;0.50;0.50;;;25.80;94.80;;;;;;5074472;28;20202;-86
2022/07/13 08:39:15;;;;;;;0.40;0.40;;;25.80;93.80;;;;;;5074595;28;20189;-86
2022/07/13 08:41:42;;;;;;;0.50;0.50;;;25.80;94.50;;;;;;5074186;28;20226;-86
2022/07/13 08:44:08;;;;;;;0.40;0.40;;;26.00;95.20;;;;;;5074330;28;20208;-86
2022/07/13 08:46:37;;;;;;;0.40;0.40;;;26.20;94.20;;;;;;5074253;28;20202;-86
2022/07/13 08:49:03;;;;;;;0.40;0.40;;;26.30;92.50;;;;;;5074166;28;20253;-86
2022/07/13 08:51:32;;;;;;;0.50;0.50;;;26.50;92.80;;;;;;5074149;28;20205;-87
2022/07/13 08:54:00;;;;;;;0.57;0.40;;;26.60;92.80;;;;;;5074127;28;20255;-87
2022/07/13 08:56:27;;;;;;;0.40;0.40;;;26.80;91.60;;;;;;5074084;28;20201;-86
2022/07/13 08:58:54;;;;;;;0.50;0.50;;;26.80;91.30;;;;;;5074028;28;20225;-87
2022/07/13 09:01:21;;;;;;;0.40;0.40;;;26.90;90.60;;;;;;5073762;28;20699;-87
2022/07/13 09:03:49;;;;;;;0.50;0.50;;;27.00;92.10;;;;;;5073799;28;20271;-86
2022/07/13 09:06:41;;;;;;;0.40;0.40;;;27.10;91.90;;;;;;5074048;28;20205;-86
2022/07/13 09:09:08;;;;;;;0.40;0.40;;;27.20;89.20;;;;;;5073498;28;20565;-87
2022/07/13 09:11:35;;;;;;;0.68;0.40;;;27.20;90.00;;;;;;5073894;28;20568;-86
2022/07/13 09:14:02;;;;;;;0.40;0.40;;;27.30;90.50;;;;;;5073483;28;20699;-86
2022/07/13 09:16:30;;;;;;;0.50;0.50;;;27.30;88.80;;;;;;5073982;28;20194;-86
2022/07/13 09:18:59;;;;;;;0.50;0.50;;;27.40;87.00;;;;;;5073476;28;20222;-90
2022/07/13 09:21:30;;;;;;;2.47;0.40;;;27.60;86.70;;;;;;5073951;28;20198;-87
2022/07/13 09:23:58;;;;;;;0.50;0.50;;;27.80;85.90;;;;;;5073542;28;20660;-87
2022/07/13 09:26:40;;;;;;;0.50;0.50;;;27.80;85.60;;;;;;5073894;28;20194;-86
2022/07/13 09:29:07;;;;;;;0.40;0.40;;;27.90;85.60;;;;;;5074666;28;20556;-87
2022/07/13 09:31:50;;;;;;;0.77;0.77;;;27.90;85.70;;;;;;5073785;28;20221;-87
2022/07/13 09:34:18;;;;;;;0.50;0.50;;;27.90;83.50;;;;;;5073783;28;20186;-87
2022/07/13 09:36:45;;;;;;;0.50;0.40;;;28.00;83.60;;;;;;5073627;28;20202;-87
2022/07/13 09:39:12;;;;;;;0.45;0.45;;;28.00;81.60;;;;;;5073817;28;20182;-88
2022/07/13 09:41:39;;;;;;;0.55;0.40;;;28.00;80.40;;;;;;5073735;28;20252;-87
2022/07/13 09:46:58;;;;;;;0.40;0.40;;;28.40;81.00;;;;;;5074549;28;20669;-87
2022/07/13 09:49:35;;;;;;;0.45;0.45;;;28.60;80.90;;;;;;5074882;28;20190;-87
2022/07/13 09:52:05;;;;;;;0.40;0.40;;;28.80;79.10;;;;;;5074426;28;20180;-85
2022/07/13 09:54:33;;;;;;;0.40;0.40;;;29.00;80.50;;;;;;5074334;28;20703;-85
2022/07/13 09:57:02;;;;;;;0.45;0.45;;;29.20;77.30;;;;;;5073470;28;20205;-85
2022/07/13 09:59:30;;;;;;;0.40;0.40;;;29.30;75.50;;;;;;5073530;28;20573;-85
2022/07/13 10:01:57;;;;;;;0.50;0.50;;;29.30;75.10;;;;;;5072830;28;20215;-85
2022/07/13 10:04:25;;;;;;;0.50;0.40;;;29.10;74.20;;;;;;5072820;28;20686;-85
2022/07/13 10:06:54;;;;;;;0.50;0.40;;;29.00;74.50;;;;;;5074022;28;20207;-84
2022/07/13 10:09:22;;;;;;;0.50;0.50;;;29.10;74.80;;;;;;5073038;28;20208;-84
2022/07/13 10:11:49;;;;;;;0.57;0.57;;;29.00;74.70;;;;;;5073166;28;20196;-85
2022/07/13 10:14:18;;;;;;;0.40;0.40;;;29.00;74.50;;;;;;5072998;28;20208;-84
2022/07/13 10:16:45;;;;;;;0.40;0.40;;;29.10;71.00;;;;;;5072922;28;20208;-87
2022/07/13 10:19:13;;;;;;;0.40;0.40;;;29.10;68.40;;;;;;5073000;28;20204;-87
2022/07/13 10:22:01;;;;;;;0.30;0.30;;;29.20;59.90;;;;;;5076438;28;20208;-85
2022/07/13 10:24:28;;;;;;;0.38;0.38;;;29.10;58.20;;;;;;5076541;28;20207;-85
2022/07/13 10:27:19;;;;;;;0.40;0.30;;;29.20;57.40;;;;;;5076417;28;20744;-86
2022/07/13 10:29:48;;;;;;;0.40;0.40;;;29.20;56.90;;;;;;5076780;28;20176;-85
2022/07/13 10:32:18;;;;;;;0.50;0.40;;;29.20;57.60;;;;;;5076638;28;20206;-85
2022/07/13 10:34:53;;;;;;;0.77;0.50;;;29.30;57.50;;;;;;5076556;28;20216;-85
2022/07/13 10:37:23;;;;;;;0.40;0.40;;;29.40;55.50;;;;;;5076211;28;20235;-86
2022/07/13 10:40:13;;;;;;;0.40;0.40;;;29.60;52.90;;;;;;5076507;28;20204;-86
2022/07/13 10:43:25;;;;;;;0.40;0.38;;;29.70;53.40;;;;;;5076058;28;20703;-85
2022/07/13 10:45:52;;;;;;;0.40;0.40;;;29.60;53.50;;;;;;5076077;28;20194;-85
2022/07/13 10:48:45;;;;;;;0.45;0.45;;;29.60;52.90;;;;;;5076174;28;20263;-85
2022/07/13 10:51:19;;;;;;;0.40;0.40;;;29.60;53.20;;;;;;5076467;28;20659;-85
2022/07/13 10:54:08;;;;;;;0.40;0.40;;;29.60;50.90;;;;;;5076371;28;20198;-85
2022/07/13 10:56:34;;;;;;;0.30;0.30;;;29.60;52.10;;;;;;5076150;28;20186;-85
2022/07/13 10:59:02;;;;;;;0.40;0.40;;;29.50;50.50;;;;;;5075825;28;20225;-85
2022/07/13 11:01:42;;;;;;;0.30;0.30;;;29.60;52.80;;;;;;5075757;28;20235;-85
2022/07/13 11:04:12;;;;;;;0.45;0.40;;;30.10;51.20;;;;;;5075769;28;20213;-85
2022/07/13 11:06:39;;;;;;;0.32;0.30;;;30.30;51.50;;;;;;5075953;28;20209;-87
2022/07/13 11:09:14;;;;;;;0.40;0.40;;;30.60;50.90;;;;;;5076383;28;20225;-87
2022/07/13 11:11:46;;;;;;;0.50;0.50;;;31.20;49.90;;;;;;5076102;28;20190;-86
2022/07/13 11:14:49;;;;;;;0.40;0.40;;;31.70;49.30;;;;;;5076794;28;20186;-87
2022/07/13 11:17:17;;;;;;;0.32;0.30;;;31.70;48.70;;;;;;5075604;28;20227;-86
2022/07/13 11:19:58;;;;;;;0.50;0.30;;;31.50;47.70;;;;;;5075960;28;20204;-87
2022/07/13 11:25:13;;;;;;;0.40;0.40;;;31.20;48.70;;;;;;5075729;28;20223;-87
2022/07/13 11:25:26;;;;;;;1.48;0.40;;;30.90;48.30;;;;;;5075375;28;20201;-86
2022/07/13 11:28:03;;;;;;;0.40;0.30;;;30.50;50.20;;;;;;5075729;28;20226;-86
2022/07/13 11:30:31;;;;;;;0.50;0.50;;;30.50;48.10;;;;;;5075436;28;20197;-86
2022/07/13 11:32:58;;;;;;;0.40;0.40;;;30.40;48.00;;;;;;5075451;28;20208;-87
2022/07/13 11:35:25;;;;;;;0.40;0.40;;;30.50;48.30;;;;;;5075294;28;20669;-88
2022/07/13 11:37:53;;;;;;;0.40;0.40;;;30.50;49.70;;;;;;5075106;28;20283;-86
2022/07/13 11:40:32;;;;;;;0.40;0.40;;;30.50;49.50;;;;;;5075278;28;20200;-87
2022/07/13 11:43:00;;;;;;;0.40;0.40;;;30.50;48.40;;;;;;5075457;28;20219;-87
2022/07/13 11:45:30;;;;;;;0.40;0.40;;;30.50;48.00;;;;;;5075015;28;20755;-86
2022/07/13 11:47:58;;;;;;;2.10;0.52;;;30.40;48.50;;;;;;5075265;28;20310;-86
2022/07/13 11:50:42;;;;;;;0.30;0.30;;;30.40;48.40;;;;;;5074909;28;20201;-87
2022/07/13 11:53:10;;;;;;;0.50;0.30;;;30.30;48.90;;;;;;5075374;28;20186;-87
2022/07/13 11:55:38;;;;;;;0.40;0.40;;;30.20;47.20;;;;;;5075227;28;20198;-87
2022/07/13 11:58:20;;;;;;;0.40;0.40;;;30.10;48.80;;;;;;5074851;28;20591;-86
2022/07/13 12:00:47;;;;;;;0.30;0.30;;;30.20;49.00;;;;;;5075298;28;20209;-87
2022/07/13 12:03:13;;;;;;;0.50;0.50;;;30.20;45.40;;;;;;5074873;28;20231;-86
2022/07/13 12:05:44;;;;;;;0.40;0.30;;;30.20;45.50;;;;;;5074841;28;20673;-86
2022/07/13 12:08:11;;;;;;;0.40;0.40;;;30.10;45.10;;;;;;5074867;28;20302;-86
2022/07/13 12:10:39;;;;;;;0.40;0.40;;;30.10;46.10;;;;;;5074695;28;20671;-87
2022/07/13 12:13:06;;;;;;;1.13;0.40;;;30.00;45.20;;;;;;5074759;28;20191;-85
2022/07/13 12:15:33;;;;;;;0.40;0.40;;;30.10;45.60;;;;;;5074862;28;20235;-87
2022/07/13 12:18:04;;;;;;;1.48;0.35;;;30.10;43.70;;;;;;5074667;28;20222;-87
2022/07/13 12:20:33;;;;;;;0.40;0.40;;;30.10;44.10;;;;;;5074330;28;20186;-86
2022/07/13 12:23:00;;;;;;;0.40;0.40;;;30.10;46.30;;;;;;5074516;28;20225;-86
2022/07/13 12:25:28;;;;;;;0.40;0.40;;;30.00;46.40;;;;;;5074552;28;20252;-86
2022/07/13 12:28:00;;;;;;;0.40;0.30;;;30.00;48.00;;;;;;5074390;28;20218;-86
2022/07/13 12:30:27;;;;;;;0.50;0.50;;;29.80;46.90;;;;;;5074437;28;20196;-86
2022/07/13 12:33:01;;;;;;;0.32;0.30;;;29.70;48.30;;;;;;5074520;28;20205;-86
2022/07/13 12:35:29;;;;;;;0.40;0.40;;;29.70;47.20;;;;;;5074049;28;20192;-86
2022/07/13 12:37:57;;;;;;;0.40;0.40;;;29.70;47.90;;;;;;5073870;28;20279;-86
2022/07/13 12:40:44;;;;;;;0.50;0.45;;;29.70;49.10;;;;;;5073949;28;20299;-87
2022/07/13 12:43:19;;;;;;;0.40;0.40;;;29.70;46.40;;;;;;5073445;28;20234;-86
2022/07/13 12:45:48;;;;;;;0.40;0.40;;;29.60;44.90;;;;;;5074261;28;20202;-86
2022/07/13 12:48:16;;;;;;;0.30;0.30;;;29.60;46.10;;;;;;5074039;28;20230;-85
2022/07/13 12:50:43;;;;;;;0.40;0.30;;;29.50;45.90;;;;;;5073677;28;20704;-86
2022/07/13 12:53:10;;;;;;;0.40;0.30;;;29.40;46.50;;;;;;5073993;28;20210;-86
2022/07/13 12:55:53;;;;;;;0.40;0.35;;;29.30;46.50;;;;;;5073993;28;20207;-86
2022/07/13 12:58:39;;;;;;;0.40;0.30;;;29.40;46.30;;;;;;5073555;28;20709;-87
2022/07/13 13:01:05;;;;;;;0.40;0.35;;;29.40;46.70;;;;;;5073872;28;20300;-85
2022/07/13 13:03:32;;;;;;;0.40;0.30;;;29.50;44.50;;;;;;5073453;28;20227;-87